Time;durP1;ratioP1;P1;durP2;ratioP2;P2;SDS_P1;SDS_P2;PMS_P1;PMS_P2;Temp;Humidity;BMP_temperature;BMP_pressure;BME280_temperature;BME280_humidity;BME280_pressure;Samples;Min_cycle;Max_cycle;Signal;HPM_P1;HPM_P2
2022/11/14 00:01:59;;;;;;;;;;;;;;;24.56;48.05;94196.16;4891451;29;7744;-70
2022/11/14 00:04:25;;;;;;;;;;;;;;;24.56;48.14;94190.66;4953750;28;7199;-70
2022/11/14 00:06:58;;;;;;;;;;;;;;;24.57;48.35;94197.66;4965964;28;8768;-71
2022/11/14 00:09:41;;;;;;;;;;;;;;;24.56;48.23;94183.16;4962323;28;7056;-67
2022/11/14 00:12:17;;;;;;;;;;;;;;;24.57;47.63;94187.41;4971909;28;7380;-69
2022/11/14 00:14:47;;;;;;;;;;;;;;;24.56;47.81;94191.41;4975377;28;7690;-70
2022/11/14 00:17:25;;;;;;;;;;;;;;;24.55;48.56;94195.44;4956622;28;9488;-71
2022/11/14 00:20:00;;;;;;;;;;;;;;;24.55;47.78;94200.19;4949377;28;7191;-70
2022/11/14 00:22:33;;;;;;;;;;;;;;;24.55;48.38;94194.69;4971621;28;7666;-70
2022/11/14 00:25:08;;;;;;;;;;;;;;;24.55;48.44;94186.44;4957471;28;7281;-70
2022/11/14 00:27:43;;;;;;;;;;;;;;;24.54;47.85;94187.66;4976111;28;7857;-70
2022/11/14 00:30:12;;;;;;;;;;;;;;;24.54;48.37;94193.94;4976297;28;9018;-70
2022/11/14 00:32:46;;;;;;;;;;;;;;;24.53;48.02;94192.41;4968258;28;8403;-69
2022/11/14 00:35:12;;;;;;;;;;;;;;;24.53;47.80;94194.44;4964415;28;7220;-70
2022/11/14 00:37:49;;;;;;;;;;;;;;;24.54;48.10;94180.19;4976144;28;9694;-71
2022/11/14 00:40:15;;;;;;;;;;;;;;;24.54;47.93;94182.94;4958671;28;7220;-71
2022/11/14 00:42:45;;;;;;;;;;;;;;;24.56;47.78;94176.91;4958076;28;7192;-71
2022/11/14 00:45:47;;;;;;;;;;;;;;;24.54;48.38;94171.94;4948725;28;10882;-69
2022/11/14 00:48:22;;;;;;;;;;;;;;;24.53;47.78;94175.91;4892821;29;7197;-70
2022/11/14 00:50:56;;;;;;;;;;;;;;;24.53;48.12;94177.94;4915936;29;7106;-70
2022/11/14 00:53:22;;;;;;;;;;;;;;;24.53;48.46;94175.19;4904951;29;7435;-69
2022/11/14 00:55:48;;;;;;;;;;;;;;;24.54;48.27;94173.94;4897021;29;7488;-69
2022/11/14 00:58:14;;;;;;;;;;;;;;;24.53;47.70;94180.69;4910460;29;7021;-70
2022/11/14 01:00:58;;;;;;;;;;;;;;;24.52;47.99;94182.69;4901208;29;7198;-71
2022/11/14 01:03:28;;;;;;;;;;;;;;;24.52;47.75;94174.44;4906430;29;7355;-68
2022/11/14 01:06:10;;;;;;;;;;;;;;;24.52;48.18;94162.69;4906741;29;7024;-71
2022/11/14 01:08:36;;;;;;;;;;;;;;;24.53;47.88;94159.44;4886333;29;7078;-71
2022/11/14 01:11:23;;;;;;;;;;;;;;;24.53;47.86;94164.19;4891669;29;7377;-70
2022/11/14 01:13:49;;;;;;;;;;;;;;;24.51;48.08;94175.69;4889530;29;7214;-70
2022/11/14 01:16:15;;;;;;;;;;;;;;;24.52;47.75;94171.69;4896016;29;7333;-69
2022/11/14 01:18:44;;;;;;;;;;;;;;;24.51;48.05;94161.94;4911497;29;7110;-69
2022/11/14 01:21:25;;;;;;;;;;;;;;;24.52;47.79;94163.44;4890438;28;8988;-71
2022/11/14 01:23:58;;;;;;;;;;;;;;;24.53;48.01;94164.19;4976464;28;7041;-69
2022/11/14 01:26:30;;;;;;;;;;;;;;;24.52;47.60;94163.44;4963695;28;8739;-70
2022/11/14 01:29:11;;;;;;;;;;;;;;;24.52;48.04;94163.44;4967255;28;7272;-70
2022/11/14 01:31:38;;;;;;;;;;;;;;;24.53;47.82;94159.44;4967601;28;10059;-71
2022/11/14 01:34:23;;;;;;;;;;;;;;;24.54;48.36;94154.69;4957784;28;7585;-69
2022/11/14 01:36:58;;;;;;;;;;;;;;;24.53;48.26;94150.44;4971652;28;7297;-70
2022/11/14 01:39:32;;;;;;;;;;;;;;;24.53;48.02;94137.44;4976191;28;7235;-70
2022/11/14 01:42:08;;;;;;;;;;;;;;;24.53;47.97;94133.94;4974127;28;7046;-70
2022/11/14 01:45:22;;;;;;;;;;;;;;;24.52;48.05;94118.69;4948766;28;7581;-67
2022/11/14 01:47:49;;;;;;;;;;;;;;;24.53;47.93;94106.47;4911262;29;7037;-70
2022/11/14 01:50:27;;;;;;;;;;;;;;;24.52;47.66;94108.47;4887567;29;7567;-70
2022/11/14 01:52:55;;;;;;;;;;;;;;;24.51;47.39;94106.94;4913875;29;7512;-69
2022/11/14 01:55:21;;;;;;;;;;;;;;;24.50;48.04;94102.72;4898512;29;7686;-70
2022/11/14 01:57:49;;;;;;;;;;;;;;;24.51;48.15;94106.94;4893247;29;7025;-68
2022/11/14 02:00:25;;;;;;;;;;;;;;;24.51;47.84;94104.19;4914480;29;7589;-69
2022/11/14 02:02:54;;;;;;;;;;;;;;;24.51;47.81;94106.22;4898464;29;7251;-70
2022/11/14 02:05:21;;;;;;;;;;;;;;;24.50;47.89;94108.22;4914240;29;8458;-69
2022/11/14 02:07:48;;;;;;;;;;;;;;;24.52;47.28;94115.94;4908947;29;7421;-69
2022/11/14 02:10:17;;;;;;;;;;;;;;;24.50;47.65;94105.47;4889460;29;7024;-68
2022/11/14 02:12:52;;;;;;;;;;;;;;;24.50;48.19;94099.22;4911430;29;9443;-71
2022/11/14 02:15:33;;;;;;;;;;;;;;;24.50;48.21;94099.97;4911543;29;7484;-71
2022/11/14 02:18:01;;;;;;;;;;;;;;;24.50;47.90;94099.97;4913129;29;8891;-69
2022/11/14 02:20:42;;;;;;;;;;;;;;;24.49;47.49;94103.97;4910156;29;8943;-68
2022/11/14 02:23:24;;;;;;;;;;;;;;;24.49;47.94;94101.22;4913075;28;7440;-69
2022/11/14 02:25:52;;;;;;;;;;;;;;;24.49;47.95;94103.97;4957506;28;7431;-69
2022/11/14 02:28:20;;;;;;;;;;;;;;;24.47;47.67;94103.72;4965888;28;7652;-70
2022/11/14 02:30:54;;;;;;;;;;;;;;;24.49;47.45;94106.00;4967417;28;7230;-68
2022/11/14 02:33:26;;;;;;;;;;;;;;;24.49;48.18;94103.97;4972542;28;7207;-70
2022/11/14 02:35:52;;;;;;;;;;;;;;;24.48;47.80;94102.50;4972101;28;9025;-70
2022/11/14 02:38:21;;;;;;;;;;;;;;;24.49;47.30;94103.97;4975555;28;7026;-70
2022/11/14 02:40:59;;;;;;;;;;;;;;;24.49;47.57;94098.47;4974591;28;7113;-70
2022/11/14 02:43:26;;;;;;;;;;;;;;;24.49;47.80;94095.72;4971489;28;8554;-70
2022/11/14 02:45:57;;;;;;;;;;;;;;;24.48;47.31;94099.75;4954897;28;8542;-68
2022/11/14 02:48:27;;;;;;;;;;;;;;;24.48;47.63;94091.50;4972919;28;7418;-69
2022/11/14 02:50:59;;;;;;;;;;;;;;;24.48;47.87;94090.75;4957436;28;7016;-70
2022/11/14 02:53:27;;;;;;;;;;;;;;;24.48;48.06;94096.25;4973140;28;6868;-70
2022/11/14 02:55:53;;;;;;;;;;;;;;;24.46;47.96;94088.50;4973194;28;7372;-70
2022/11/14 02:58:19;;;;;;;;;;;;;;;24.47;47.93;94095.50;4973052;28;9141;-70
2022/11/14 03:00:49;;;;;;;;;;;;;;;24.46;47.97;94091.25;4970843;28;7157;-69
2022/11/14 03:03:23;;;;;;;;;;;;;;;24.46;47.98;94087.75;4972036;28;7061;-70
2022/11/14 03:05:57;;;;;;;;;;;;;;;24.48;47.30;94088.75;4948364;28;7481;-68
2022/11/14 03:08:23;;;;;;;;;;;;;;;24.47;47.73;94089.22;4955633;28;7614;-68
2022/11/14 03:11:13;;;;;;;;;;;;;;;24.48;48.21;94086.00;4972759;28;9299;-70
2022/11/14 03:13:42;;;;;;;;;;;;;;;24.46;47.96;94085.75;4954341;28;9398;-69
2022/11/14 03:16:12;;;;;;;;;;;;;;;24.47;47.74;94090.00;4968565;28;7376;-68
2022/11/14 03:18:39;;;;;;;;;;;;;;;24.47;48.24;94089.22;4956368;28;7008;-69
2022/11/14 03:21:31;;;;;;;;;;;;;;;24.46;47.47;94077.50;4974584;28;7246;-70
2022/11/14 03:24:07;;;;;;;;;;;;;;;24.46;48.08;94083.00;4893935;29;8448;-69
2022/11/14 03:27:02;;;;;;;;;;;;;;;24.47;47.33;94089.22;4904100;29;7261;-70
2022/11/14 03:29:36;;;;;;;;;;;;;;;24.46;47.76;94083.00;4856707;29;9369;-68
2022/11/14 03:32:10;;;;;;;;;;;;;;;24.47;47.54;94083.72;4856615;29;7132;-70
2022/11/14 03:34:37;;;;;;;;;;;;;;;24.47;47.91;94084.50;4874833;29;7037;-70
2022/11/14 03:37:03;;;;;;;;;;;;;;;24.48;48.13;94090.75;4860066;29;7246;-69
2022/11/14 03:39:47;;;;;;;;;;;;;;;24.49;47.73;94086.75;4871756;29;7232;-69
2022/11/14 03:42:25;;;;;;;;;;;;;;;24.48;47.54;94088.75;4852150;29;7019;-69
2022/11/14 03:44:58;;;;;;;;;;;;;;;24.48;47.48;94082.50;4859644;29;9465;-70
2022/11/14 03:47:28;;;;;;;;;;;;;;;24.48;47.66;94086.00;4851838;29;7037;-69
2022/11/14 03:50:05;;;;;;;;;;;;;;;24.48;48.09;94091.50;4871816;29;9330;-70
2022/11/14 03:52:42;;;;;;;;;;;;;;;24.47;47.47;94090.00;4864631;29;9323;-70
2022/11/14 03:55:08;;;;;;;;;;;;;;;24.48;47.40;94093.50;4869433;29;7349;-69
2022/11/14 03:57:34;;;;;;;;;;;;;;;24.48;47.63;94097.00;4864235;29;9999;-69
2022/11/14 03:59:59;;;;;;;;;;;;;;;24.48;47.43;94091.50;4870953;29;7044;-69
2022/11/14 04:02:28;;;;;;;;;;;;;;;24.48;47.34;94093.50;4937015;28;7110;-70
2022/11/14 04:04:53;;;;;;;;;;;;;;;24.47;48.05;94091.97;4953559;28;7162;-69
2022/11/14 04:07:21;;;;;;;;;;;;;;;24.46;48.00;94091.25;4976021;28;7196;-68
2022/11/14 04:09:55;;;;;;;;;;;;;;;24.47;47.35;94072.75;4963823;28;7292;-69
2022/11/14 04:12:23;;;;;;;;;;;;;;;24.47;48.20;94073.50;4976569;28;7150;-69
2022/11/14 04:14:50;;;;;;;;;;;;;;;24.49;47.81;94086.75;4974346;28;7336;-70
2022/11/14 04:17:24;;;;;;;;;;;;;;;24.47;46.92;94081.75;4975221;28;7061;-69
2022/11/14 04:19:58;;;;;;;;;;;;;;;24.47;47.49;94081.00;4974737;28;8618;-69
2022/11/14 04:22:26;;;;;;;;;;;;;;;24.46;47.65;94080.25;4957427;28;9575;-69
2022/11/14 04:24:53;;;;;;;;;;;;;;;24.45;47.61;94073.25;4967166;28;7119;-69
2022/11/14 04:27:24;;;;;;;;;;;;;;;24.46;47.94;94080.25;4974755;28;7242;-69
2022/11/14 04:29:59;;;;;;;;;;;;;;;24.45;47.51;94081.50;4975963;28;9105;-70
2022/11/14 04:32:44;;;;;;;;;;;;;;;24.46;47.69;94090.50;4984106;28;7361;-69
2022/11/14 04:35:10;;;;;;;;;;;;;;;24.45;47.54;94092.50;4971764;28;7947;-69
2022/11/14 04:37:40;;;;;;;;;;;;;;;24.44;47.69;94085.53;4968972;28;7362;-68
2022/11/14 04:40:09;;;;;;;;;;;;;;;24.46;47.67;94085.75;4974773;28;8262;-70
2022/11/14 04:43:07;;;;;;;;;;;;;;;24.46;47.36;94101.50;4970485;28;7084;-68
2022/11/14 04:45:37;;;;;;;;;;;;;;;24.45;47.40;94092.50;4889488;29;7201;-70
2022/11/14 04:48:13;;;;;;;;;;;;;;;24.45;47.23;94098.00;4872603;29;9137;-69
2022/11/14 04:50:47;;;;;;;;;;;;;;;24.46;46.92;94085.75;4862233;29;7256;-70
2022/11/14 04:53:15;;;;;;;;;;;;;;;24.46;47.13;94099.50;4865255;29;7109;-69
2022/11/14 04:55:45;;;;;;;;;;;;;;;24.47;47.49;94098.22;4863756;29;7433;-69
2022/11/14 04:58:11;;;;;;;;;;;;;;;24.47;47.08;94100.97;4887569;29;7263;-69
2022/11/14 05:00:38;;;;;;;;;;;;;;;24.46;47.73;94096.75;4879064;29;7085;-69
2022/11/14 05:03:08;;;;;;;;;;;;;;;24.49;47.78;94103.25;4893295;29;7141;-69
2022/11/14 05:05:37;;;;;;;;;;;;;;;24.48;46.93;94107.22;4871254;29;9726;-68
2022/11/14 05:08:05;;;;;;;;;;;;;;;24.47;47.65;94100.22;4870881;29;7006;-69
2022/11/14 05:10:42;;;;;;;;;;;;;;;24.48;47.75;94097.00;4894345;29;7001;-68
2022/11/14 05:13:21;;;;;;;;;;;;;;;24.47;47.48;94094.72;4885297;29;8743;-70
2022/11/14 05:15:59;;;;;;;;;;;;;;;24.47;47.30;94100.97;4892520;29;8877;-70
2022/11/14 05:18:29;;;;;;;;;;;;;;;24.47;47.51;94100.22;4880193;29;7127;-69
2022/11/14 05:20:58;;;;;;;;;;;;;;;24.47;47.41;94100.97;4885376;28;8343;-70
2022/11/14 05:23:24;;;;;;;;;;;;;;;24.48;47.56;94091.50;4960424;28;7145;-67
2022/11/14 05:26:08;;;;;;;;;;;;;;;24.47;47.33;94084.50;4954269;28;7115;-67
2022/11/14 05:28:54;;;;;;;;;;;;;;;24.48;47.42;94099.75;4953221;28;8916;-67
2022/11/14 05:31:19;;;;;;;;;;;;;;;24.47;47.57;94095.50;4955848;28;8730;-67
2022/11/14 05:34:19;;;;;;;;;;;;;;;24.48;47.38;94105.25;4964656;28;7001;-68
2022/11/14 05:37:04;;;;;;;;;;;;;;;24.47;47.76;94092.75;4862311;29;7456;-69
2022/11/14 05:39:30;;;;;;;;;;;;;;;24.54;47.19;94099.69;4875597;29;7195;-68
2022/11/14 05:42:26;;;;;;;;;;;;;;;24.61;48.03;94108.16;4870904;29;6978;-68
2022/11/14 05:44:57;;;;;;;;;;;;;;;24.62;47.64;94101.38;4852170;29;8996;-70
2022/11/14 05:47:38;;;;;;;;;;;;;;;24.63;47.85;94108.38;4854283;29;9276;-69
2022/11/14 05:50:08;;;;;;;;;;;;;;;24.67;47.58;94111.59;4841396;29;7185;-69
2022/11/14 05:52:39;;;;;;;;;;;;;;;24.70;47.39;94101.59;4842263;29;9330;-69
2022/11/14 05:55:08;;;;;;;;;;;;;;;24.73;47.02;94108.06;4849522;29;7261;-71
2022/11/14 05:57:38;;;;;;;;;;;;;;;24.75;47.04;94100.06;4840327;29;7196;-71
2022/11/14 06:00:05;;;;;;;;;;;;;;;24.73;46.57;94099.81;4854902;29;7490;-68
2022/11/14 06:02:34;;;;;;;;;;;;;;;24.69;46.97;94100.81;4838142;29;7095;-64
2022/11/14 06:05:04;;;;;;;;;;;;;;;24.66;46.64;94096.34;4838517;29;7266;-66
2022/11/14 06:07:30;;;;;;;;;;;;;;;24.64;46.27;94093.34;4858493;29;7296;-67
2022/11/14 06:09:58;;;;;;;;;;;;;;;24.64;46.53;94093.34;4858244;29;9394;-65
2022/11/14 06:12:24;;;;;;;;;;;;;;;24.62;46.54;94112.38;4879592;28;7067;-65
2022/11/14 06:14:59;;;;;;;;;;;;;;;24.60;46.99;94114.88;4933442;28;7285;-64
2022/11/14 06:17:33;;;;;;;;;;;;;;;24.58;47.35;94109.16;4928305;29;8217;-65
2022/11/14 06:20:01;;;;;;;;;;;;;;;24.58;46.93;94122.91;4937768;28;7324;-65
2022/11/14 06:22:29;;;;;;;;;;;;;;;24.62;46.55;94117.16;4982147;28;9416;-65
2022/11/14 06:25:01;;;;;;;;;;;;;;;24.65;46.83;94116.88;4978491;28;7386;-65
2022/11/14 06:27:27;;;;;;;;;;;;;;;24.71;47.33;94117.56;4977960;28;7902;-66
2022/11/14 06:29:53;;;;;;;;;;;;;;;24.76;46.85;94107.06;4977105;28;7366;-66
2022/11/14 06:32:21;;;;;;;;;;;;;;;24.77;47.04;94100.31;4956785;28;7196;-66
2022/11/14 06:34:47;;;;;;;;;;;;;;;24.73;46.81;94101.28;4986136;28;7099;-67
2022/11/14 06:37:13;;;;;;;;;;;;;;;24.71;46.93;94105.81;4960583;28;7018;-66
2022/11/14 06:39:49;;;;;;;;;;;;;;;24.75;47.34;94111.09;4959279;28;9001;-69
2022/11/14 06:42:30;;;;;;;;;;;;;;;24.76;46.71;94109.81;4970599;28;7364;-67
2022/11/14 06:44:56;;;;;;;;;;;;;;;24.77;46.43;94112.06;4955789;28;7034;-68
2022/11/14 06:47:26;;;;;;;;;;;;;;;24.78;46.11;94119.03;4976684;28;9332;-68
2022/11/14 06:49:53;;;;;;;;;;;;;;;24.74;46.32;94113.06;4954464;28;7189;-66
2022/11/14 06:52:26;;;;;;;;;;;;;;;24.73;46.77;94114.28;4973207;28;7300;-67
2022/11/14 06:54:52;;;;;;;;;;;;;;;24.70;46.65;94121.59;4952043;28;7065;-66
2022/11/14 06:57:20;;;;;;;;;;;;;;;24.70;46.61;94116.09;4974136;28;9590;-67
2022/11/14 06:59:48;;;;;;;;;;;;;;;24.71;46.90;94125.06;4959225;28;7272;-68
2022/11/14 07:02:15;;;;;;;;;;;;;;;24.70;46.95;94129.84;4972879;28;7205;-67
2022/11/14 07:04:42;;;;;;;;;;;;;;;24.66;46.88;94134.13;4974895;28;7294;-67
2022/11/14 07:07:09;;;;;;;;;;;;;;;24.63;47.17;94135.88;4950005;28;9665;-69
2022/11/14 07:09:42;;;;;;;;;;;;;;;24.62;46.97;94139.88;4955335;28;8610;-67
2022/11/14 07:12:17;;;;;;;;;;;;;;;24.60;47.72;94142.38;4969933;28;7117;-69
2022/11/14 07:14:49;;;;;;;;;;;;;;;24.59;47.04;94142.91;4971670;28;7292;-67
2022/11/14 07:17:16;;;;;;;;;;;;;;;24.58;47.48;94139.41;4967714;28;9360;-67
2022/11/14 07:19:43;;;;;;;;;;;;;;;24.56;47.25;94147.41;4955591;28;7318;-66
2022/11/14 07:22:09;;;;;;;;;;;;;;;24.55;47.69;94148.69;4973246;28;8435;-67
2022/11/14 07:24:41;;;;;;;;;;;;;;;24.51;47.42;94144.72;4959532;28;7180;-68
2022/11/14 07:27:18;;;;;;;;;;;;;;;24.53;48.21;94153.94;4950783;28;7962;-68
2022/11/14 07:29:43;;;;;;;;;;;;;;;24.53;47.97;94153.19;4954077;28;7361;-67
2022/11/14 07:32:09;;;;;;;;;;;;;;;24.52;47.35;94166.19;4952526;28;7317;-66
2022/11/14 07:34:44;;;;;;;;;;;;;;;24.52;47.80;94159.94;4979467;28;8941;-69
2022/11/14 07:37:24;;;;;;;;;;;;;;;24.52;47.56;94171.69;4969221;28;7228;-67
2022/11/14 07:39:49;;;;;;;;;;;;;;;24.54;47.80;94177.44;4956695;28;7125;-66
2022/11/14 07:42:20;;;;;;;;;;;;;;;24.51;48.02;94175.69;4959170;28;6856;-68
2022/11/14 07:44:49;;;;;;;;;;;;;;;24.52;48.10;94179.94;4968293;28;9558;-68
2022/11/14 07:47:17;;;;;;;;;;;;;;;24.51;47.49;94172.94;4974116;28;6990;-69
2022/11/14 07:49:46;;;;;;;;;;;;;;;24.52;48.09;94182.69;4955792;28;8450;-68
2022/11/14 07:52:17;;;;;;;;;;;;;;;24.49;47.88;94183.69;4977676;28;7037;-67
2022/11/14 07:54:43;;;;;;;;;;;;;;;24.49;47.94;94194.69;4971414;28;7274;-67
2022/11/14 07:57:09;;;;;;;;;;;;;;;24.49;47.62;94174.72;4978883;28;8520;-68
2022/11/14 07:59:37;;;;;;;;;;;;;;;24.48;47.84;94186.97;4958507;28;7013;-68
2022/11/14 08:02:14;;;;;;;;;;;;;;;24.47;47.87;94185.44;4967728;28;8770;-67
2022/11/14 08:04:43;;;;;;;;;;;;;;;24.49;48.15;94180.94;4976276;28;8098;-69
2022/11/14 08:07:17;;;;;;;;;;;;;;;24.48;48.38;94184.97;4963592;28;9315;-68
2022/11/14 08:09:49;;;;;;;;;;;;;;;24.48;48.04;94167.72;4961719;28;7317;-69
2022/11/14 08:12:20;;;;;;;;;;;;;;;24.49;47.45;94175.44;4961800;28;7038;-68
2022/11/14 08:14:53;;;;;;;;;;;;;;;24.50;47.95;94168.72;4974375;28;7147;-68
2022/11/14 08:17:20;;;;;;;;;;;;;;;24.48;47.59;94168.47;4941885;28;7323;-68
2022/11/14 08:19:46;;;;;;;;;;;;;;;24.49;48.14;94169.94;4957819;28;7054;-68
2022/11/14 08:22:11;;;;;;;;;;;;;;;24.49;47.54;94169.94;4963926;28;9402;-68
2022/11/14 08:24:39;;;;;;;;;;;;;;;24.49;47.61;94158.94;4939031;28;9362;-66
2022/11/14 08:27:05;;;;;;;;;;;;;;;24.50;47.89;94163.22;4961568;28;9376;-68
2022/11/14 08:29:31;;;;;;;;;;;;;;;24.52;48.17;94159.94;4951276;28;7037;-65
2022/11/14 08:31:57;;;;;;;;;;;;;;;24.52;48.15;94159.94;4960936;28;7047;-67
2022/11/14 08:34:27;;;;;;;;;;;;;;;24.50;47.63;94156.97;4952304;28;7052;-65
2022/11/14 08:36:56;;;;;;;;;;;;;;;24.52;47.36;94151.69;4953763;28;7284;-67
2022/11/14 08:39:24;;;;;;;;;;;;;;;24.52;48.03;94141.44;4971172;28;7116;-68
2022/11/14 08:41:55;;;;;;;;;;;;;;;24.52;47.57;94157.19;4953185;28;8702;-67
2022/11/14 08:44:27;;;;;;;;;;;;;;;24.51;47.59;94161.22;4971496;28;7099;-67
2022/11/14 08:46:54;;;;;;;;;;;;;;;24.49;47.51;94158.22;4957090;28;7240;-68
2022/11/14 08:49:28;;;;;;;;;;;;;;;24.48;47.62;94140.97;4972704;28;7112;-69
2022/11/14 08:51:56;;;;;;;;;;;;;;;24.50;47.89;94148.72;4978510;28;7216;-69
2022/11/14 08:54:22;;;;;;;;;;;;;;;24.47;47.96;94161.47;4961855;28;9337;-69
2022/11/14 08:56:50;;;;;;;;;;;;;;;24.48;48.07;94156.72;4971252;28;9469;-68
2022/11/14 08:59:18;;;;;;;;;;;;;;;24.49;47.70;94147.22;4971606;28;7278;-66
2022/11/14 09:01:44;;;;;;;;;;;;;;;24.50;47.60;94141.22;4974753;28;7245;-70
2022/11/14 09:04:13;;;;;;;;;;;;;;;24.50;48.15;94149.47;4956953;28;7433;-69
2022/11/14 09:06:41;;;;;;;;;;;;;;;24.50;48.32;94152.22;4972986;28;7115;-70
2022/11/14 09:09:13;;;;;;;;;;;;;;;24.49;47.36;94150.72;4958102;28;7046;-70
2022/11/14 09:11:42;;;;;;;;;;;;;;;24.48;47.96;94157.47;4949521;28;9461;-69
2022/11/14 09:14:10;;;;;;;;;;;;;;;24.49;48.08;94153.44;4970400;28;9179;-67
2022/11/14 09:16:45;;;;;;;;;;;;;;;24.48;47.67;94148.47;4965992;28;7532;-69
2022/11/14 09:19:12;;;;;;;;;;;;;;;24.50;47.65;94165.19;4954848;28;8199;-67
2022/11/14 09:21:45;;;;;;;;;;;;;;;24.49;47.79;94171.97;4974606;28;7238;-69
2022/11/14 09:24:17;;;;;;;;;;;;;;;24.51;47.92;94172.94;4968179;28;7282;-70
2022/11/14 09:26:44;;;;;;;;;;;;;;;24.50;47.88;94163.22;4957711;28;7337;-70
2022/11/14 09:29:19;;;;;;;;;;;;;;;24.53;47.79;94175.19;4974210;28;9134;-69
2022/11/14 09:31:48;;;;;;;;;;;;;;;24.53;47.61;94161.44;4983903;28;8665;-70
2022/11/14 09:34:14;;;;;;;;;;;;;;;24.54;47.79;94151.94;4952747;28;7035;-70
2022/11/14 09:36:45;;;;;;;;;;;;;;;24.54;47.43;94146.44;4946833;28;7552;-69
2022/11/14 09:39:13;;;;;;;;;;;;;;;24.54;47.58;94149.94;4956082;28;7315;-68
2022/11/14 09:42:08;;;;;;;;;;;;;;;24.54;47.56;94149.19;4956378;28;7031;-69
2022/11/14 09:44:55;;;;;;;;;;;;;;;24.56;47.36;94155.66;4950883;28;7013;-69
2022/11/14 09:47:41;;;;;;;;;;;;;;;24.55;47.96;94151.44;4972608;28;7200;-69
2022/11/14 09:50:18;;;;;;;;;;;;;;;24.57;48.40;94167.41;4969024;28;7041;-66
2022/11/14 09:53:13;;;;;;;;;;;;;;;24.57;47.27;94154.44;4967836;28;7859;-68
2022/11/14 09:55:39;;;;;;;;;;;;;;;24.56;48.00;94152.91;4948564;28;6982;-68
2022/11/14 09:58:15;;;;;;;;;;;;;;;24.56;47.74;94154.91;4954459;28;8723;-69
2022/11/14 10:01:04;;;;;;;;;;;;;;;24.55;47.31;94154.19;4973866;28;7350;-68
2022/11/14 10:04:09;;;;;;;;;;;;;;;24.55;48.36;94158.94;4966071;28;9074;-68
2022/11/14 10:07:12;;;;;;;;;;;;;;;24.54;48.05;94163.69;4947526;28;9639;-69
2022/11/14 10:09:59;;;;;;;;;;;;;;;24.54;47.37;94173.94;4914040;29;9034;-70
2022/11/14 10:12:25;;;;;;;;;;;;;;;24.51;47.67;94183.94;4898408;29;8481;-69
2022/11/14 10:15:22;;;;;;;;;;;;;;;24.53;47.62;94184.16;4896132;29;7125;-67
2022/11/14 10:18:25;;;;;;;;;;;;;;;24.54;48.07;94196.69;4897469;29;7337;-69
2022/11/14 10:21:11;;;;;;;;;;;;;;;24.53;48.15;94188.94;4897885;29;7251;-67
2022/11/14 10:23:47;;;;;;;;;;;;;;;24.53;47.67;94178.66;4897638;29;6860;-69
2022/11/14 10:26:30;;;;;;;;;;;;;;;24.53;47.78;94161.44;4910176;29;7005;-69
2022/11/14 10:29:33;;;;;;;;;;;;;;;24.53;47.46;94172.44;4897967;29;7467;-69
2022/11/14 10:32:28;;;;;;;;;;;;;;;24.53;48.04;94162.19;4897854;29;7427;-61
2022/11/14 10:35:08;;;;;;;;;;;;;;;24.53;47.80;94159.44;4897800;29;7272;-61
2022/11/14 10:38:00;;;;;;;;;;;;;;;24.53;47.79;94159.44;4893463;29;9346;-60
2022/11/14 10:40:44;;;;;;;;;;;;;;;24.53;47.89;94158.69;4920915;29;8808;-61
2022/11/14 10:43:39;;;;;;;;;;;;;;;24.53;47.67;94162.19;4925197;28;7036;-61
2022/11/14 10:46:27;;;;;;;;;;;;;;;24.54;48.03;94160.94;4954175;28;8983;-61
2022/11/14 10:49:35;;;;;;;;;;;;;;;24.56;47.88;94155.66;4962409;28;9699;-61
2022/11/14 10:52:16;;;;;;;;;;;;;;;24.59;47.96;94151.16;4909016;29;7452;-61
2022/11/14 10:54:55;;;;;;;;;;;;;;;24.56;47.49;94144.66;4901723;29;7264;-61
2022/11/14 10:57:21;;;;;;;;;;;;;;;24.56;47.93;94135.66;4917006;29;7263;-61
2022/11/14 10:59:50;;;;;;;;;;;;;;;24.56;48.00;94141.91;4906610;29;7009;-61
2022/11/14 11:02:45;;;;;;;;;;;;;;;24.55;47.95;94150.69;4908513;29;9529;-61
2022/11/14 11:05:16;;;;;;;;;;;;;;;24.56;48.33;94158.41;4894992;29;7276;-60
2022/11/14 11:13:42;;;;;;;;;;;;;;;24.56;47.99;94166.66;4900157;29;7034;-61
2022/11/14 11:16:23;;;;;;;;;;;;;;;24.57;48.21;94173.66;4915544;29;9474;-60
2022/11/14 11:18:50;;;;;;;;;;;;;;;24.59;47.72;94181.41;4892282;29;9563;-61
2022/11/14 11:21:23;;;;;;;;;;;;;;;24.59;48.00;94178.66;4912175;29;8249;-60
2022/11/14 11:23:55;;;;;;;;;;;;;;;24.56;48.03;94158.41;4955302;28;8286;-60
2022/11/14 11:26:28;;;;;;;;;;;;;;;24.59;47.24;94162.91;4957796;28;7073;-60
2022/11/14 11:29:06;;;;;;;;;;;;;;;24.60;47.55;94174.63;4955995;28;7293;-61
2022/11/14 11:31:57;;;;;;;;;;;;;;;24.57;47.79;94181.91;4969568;28;9455;-61
2022/11/14 11:34:27;;;;;;;;;;;;;;;24.56;47.74;94182.41;4953376;28;9974;-61
2022/11/14 11:37:31;;;;;;;;;;;;;;;24.54;47.83;94188.44;4972526;28;7038;-61
2022/11/14 11:40:02;;;;;;;;;;;;;;;24.53;48.24;94186.19;4890257;29;7355;-61
2022/11/14 11:42:28;;;;;;;;;;;;;;;24.53;47.59;94173.16;4902169;29;9361;-61
2022/11/14 11:45:00;;;;;;;;;;;;;;;24.54;47.65;94169.19;4890947;29;8302;-61
2022/11/14 11:47:40;;;;;;;;;;;;;;;24.55;47.94;94175.44;4906497;29;7272;-61
2022/11/14 11:50:25;;;;;;;;;;;;;;;24.56;47.90;94183.16;4890423;29;7313;-60
2022/11/14 11:53:28;;;;;;;;;;;;;;;24.57;47.82;94192.16;4904940;29;7027;-61
2022/11/14 11:56:03;;;;;;;;;;;;;;;24.55;48.39;94189.19;4894492;29;6964;-60
2022/11/14 11:58:44;;;;;;;;;;;;;;;24.54;48.02;94188.44;4885023;29;7260;-61
2022/11/14 12:01:13;;;;;;;;;;;;;;;24.55;47.84;94186.44;4907461;29;7239;-61
2022/11/14 12:03:47;;;;;;;;;;;;;;;24.56;47.94;94185.91;4903790;29;9086;-61
2022/11/14 12:06:45;;;;;;;;;;;;;;;24.56;47.98;94185.91;4902749;29;9330;-61
2022/11/14 12:09:19;;;;;;;;;;;;;;;24.54;48.37;94202.19;4858350;29;8937;-61
2022/11/14 12:12:02;;;;;;;;;;;;;;;24.55;47.57;94202.94;4851852;29;7726;-61
2022/11/14 12:15:05;;;;;;;;;;;;;;;24.56;48.44;94196.91;4900662;29;7046;-61
2022/11/14 12:17:46;;;;;;;;;;;;;;;24.55;48.11;94184.44;4910116;29;7395;-61
2022/11/14 12:20:49;;;;;;;;;;;;;;;24.57;47.65;94184.66;4914030;29;9383;-61
2022/11/14 12:23:46;;;;;;;;;;;;;;;24.57;47.97;94165.44;4921735;29;9379;-61
2022/11/14 12:26:33;;;;;;;;;;;;;;;24.57;48.29;94170.16;4912963;29;8858;-61
2022/11/14 12:29:45;;;;;;;;;;;;;;;24.57;47.41;94172.91;4915036;29;7211;-61
2022/11/14 12:32:38;;;;;;;;;;;;;;;24.55;48.08;94164.44;4922837;29;7028;-61
2022/11/14 12:35:23;;;;;;;;;;;;;;;24.58;47.79;94171.66;4914093;29;7165;-61
2022/11/14 12:38:19;;;;;;;;;;;;;;;24.60;47.59;94169.13;4909781;29;7218;-60
2022/11/14 12:40:54;;;;;;;;;;;;;;;24.61;47.92;94163.16;4916264;29;7293;-61
2022/11/14 12:43:40;;;;;;;;;;;;;;;24.64;48.18;94175.13;4914237;29;7259;-61
2022/11/14 12:46:26;;;;;;;;;;;;;;;24.62;47.77;94177.66;4930800;28;7278;-61
2022/11/14 12:48:53;;;;;;;;;;;;;;;24.62;47.68;94174.91;4965400;28;6860;-61
2022/11/14 12:51:34;;;;;;;;;;;;;;;24.64;48.10;94175.84;4956676;28;7282;-61
2022/11/14 12:54:02;;;;;;;;;;;;;;;24.66;47.99;94175.38;4973495;28;7088;-60
2022/11/14 12:56:29;;;;;;;;;;;;;;;24.64;47.35;94178.59;4964541;28;7254;-61
2022/11/14 12:59:13;;;;;;;;;;;;;;;24.63;48.08;94182.63;4969170;28;7120;-61
2022/11/14 13:02:07;;;;;;;;;;;;;;;24.67;47.73;94185.09;4976875;28;9028;-60
2022/11/14 13:05:23;;;;;;;;;;;;;;;24.67;47.46;94194.09;4979592;28;7225;-61
2022/11/14 13:08:33;;;;;;;;;;;;;;;24.70;48.05;94184.84;4878648;29;7328;-61
2022/11/14 13:21:44;;;;;;;;;;;;;;;24.72;47.93;94189.81;4878425;29;7342;-61
2022/11/14 13:23:26;;;;;;;;;;;;;;;24.70;47.79;94187.59;4881231;29;7285;-60
2022/11/14 13:26:11;;;;;;;;;;;;;;;24.71;47.17;94191.81;4868323;29;8347;-61
2022/11/14 13:28:37;;;;;;;;;;;;;;;24.71;47.95;94191.81;4850895;29;10437;-61
2022/11/14 13:31:16;;;;;;;;;;;;;;;24.70;47.78;94184.84;4857405;29;7364;-61
2022/11/14 13:33:57;;;;;;;;;;;;;;;24.69;47.09;94186.09;4872142;29;7108;-60
2022/11/14 13:37:07;;;;;;;;;;;;;;;24.73;47.56;94183.81;4872778;29;7830;-61
2022/11/14 13:39:39;;;;;;;;;;;;;;;24.73;47.35;94188.56;4876201;29;9015;-61
2022/11/14 13:42:30;;;;;;;;;;;;;;;24.69;48.21;94194.34;4861620;29;9326;-61
2022/11/14 13:45:18;;;;;;;;;;;;;;;24.66;48.07;94195.34;4916281;28;7272;-61
2022/11/14 13:48:03;;;;;;;;;;;;;;;24.63;47.59;94195.63;4948170;28;8495;-61
2022/11/14 13:50:39;;;;;;;;;;;;;;;24.62;48.09;94203.13;4968094;28;9311;-61
2022/11/14 13:53:39;;;;;;;;;;;;;;;24.64;47.60;94205.38;4939777;28;7302;-61
2022/11/14 13:56:30;;;;;;;;;;;;;;;24.64;47.29;94213.63;4885860;29;7164;-61